sensor_id;sensor_type;location;lat;lon;timestamp;pressure;altitude;pressure_sealevel;temperature;humidity
4123;BME280;2075;51.062;6.920;2024-02-23T00:00:25;94934.13;;;-144.48;99.47
4123;BME280;2075;51.062;6.920;2024-02-23T00:03:11;94942.25;;;-144.48;99.98
4123;BME280;2075;51.062;6.920;2024-02-23T00:05:58;94991.00;;;-144.48;100.00
4123;BME280;2075;51.062;6.920;2024-02-23T00:08:45;94865.03;;;-144.48;100.00
4123;BME280;2075;51.062;6.920;2024-02-23T00:11:31;94875.19;;;-144.48;99.62
4123;BME280;2075;51.062;6.920;2024-02-23T00:14:19;94930.06;;;-144.48;99.14
4123;BME280;2075;51.062;6.920;2024-02-23T00:17:05;94938.19;;;-144.48;98.04
4123;BME280;2075;51.062;6.920;2024-02-23T00:19:50;94893.47;;;-144.48;97.66
4123;BME280;2075;51.062;6.920;2024-02-23T00:22:36;94629.31;;;-144.48;100.00
4123;BME280;2075;51.062;6.920;2024-02-23T00:25:23;94915.81;;;-144.48;100.00
4123;BME280;2075;51.062;6.920;2024-02-23T00:28:09;94934.13;;;-144.48;100.00
4123;BME280;2075;51.062;6.920;2024-02-23T00:30:56;94903.63;;;-144.48;100.00
4123;BME280;2075;51.062;6.920;2024-02-23T00:33:42;94972.72;;;-144.48;100.00
4123;BME280;2075;51.062;6.920;2024-02-23T00:36:27;94923.97;;;-144.48;100.00
4123;BME280;2075;51.062;6.920;2024-02-23T00:39:13;94972.72;;;-144.48;100.00
4123;BME280;2075;51.062;6.920;2024-02-23T00:42:00;94873.16;;;-144.48;100.00
4123;BME280;2075;51.062;6.920;2024-02-23T00:44:46;94984.91;;;-144.48;100.00
4123;BME280;2075;51.062;6.920;2024-02-23T00:47:31;94810.16;;;-144.48;100.00
4123;BME280;2075;51.062;6.920;2024-02-23T00:50:19;94936.16;;;-144.48;100.00
4123;BME280;2075;51.062;6.920;2024-02-23T00:53:04;94952.41;;;-144.48;100.00
4123;BME280;2075;51.062;6.920;2024-02-23T00:55:51;94734.97;;;-144.48;100.00
4123;BME280;2075;51.062;6.920;2024-02-23T00:58:38;94976.78;;;-144.48;100.00
4123;BME280;2075;51.062;6.920;2024-02-23T01:01:24;94999.16;;;-144.48;100.00
4123;BME280;2075;51.062;6.920;2024-02-23T01:04:10;94986.94;;;-144.48;100.00
4123;BME280;2075;51.062;6.920;2024-02-23T01:06:57;94956.47;;;-144.48;100.00
4123;BME280;2075;51.062;6.920;2024-02-23T01:09:44;94720.75;;;-144.48;100.00
4123;BME280;2075;51.062;6.920;2024-02-23T01:12:29;95027.59;;;-144.48;100.00
4123;BME280;2075;51.062;6.920;2024-02-23T01:15:17;94854.88;;;-144.48;100.00
4123;BME280;2075;51.062;6.920;2024-02-23T01:18:03;95236.91;;;-144.48;100.00
4123;BME280;2075;51.062;6.920;2024-02-23T01:20:50;95013.38;;;-144.48;100.00
4123;BME280;2075;51.062;6.920;2024-02-23T01:23:35;94984.91;;;-144.48;100.00
4123;BME280;2075;51.062;6.920;2024-02-23T01:26:20;94991.00;;;-144.48;100.00
4123;BME280;2075;51.062;6.920;2024-02-23T01:29:06;95121.06;;;-144.48;100.00
4123;BME280;2075;51.062;6.920;2024-02-23T01:31:53;95139.34;;;-144.48;100.00
4123;BME280;2075;51.062;6.920;2024-02-23T01:34:39;94997.13;;;-144.48;100.00
4123;BME280;2075;51.062;6.920;2024-02-23T01:37:24;95015.41;;;-144.48;100.00
4123;BME280;2075;51.062;6.920;2024-02-23T01:40:10;94936.16;;;-144.48;100.00
4123;BME280;2075;51.062;6.920;2024-02-23T01:43:03;95025.56;;;-144.48;100.00
4123;BME280;2075;51.062;6.920;2024-02-23T01:45:48;95340.56;;;-144.48;100.00
4123;BME280;2075;51.062;6.920;2024-02-23T01:48:35;95035.72;;;-144.48;100.00
4123;BME280;2075;51.062;6.920;2024-02-23T01:51:22;95257.22;;;-144.48;100.00
4123;BME280;2075;51.062;6.920;2024-02-23T01:54:08;95009.31;;;-144.48;100.00
4123;BME280;2075;51.062;6.920;2024-02-23T01:56:55;95037.75;;;-144.48;100.00
4123;BME280;2075;51.062;6.920;2024-02-23T01:59:42;95001.19;;;-144.48;100.00
4123;BME280;2075;51.062;6.920;2024-02-23T02:02:29;94976.78;;;-144.48;100.00
4123;BME280;2075;51.062;6.920;2024-02-23T02:05:17;95013.38;;;-144.48;100.00
4123;BME280;2075;51.062;6.920;2024-02-23T02:08:02;95047.91;;;-144.48;100.00
4123;BME280;2075;51.062;6.920;2024-02-23T02:10:48;95051.97;;;-144.48;100.00
4123;BME280;2075;51.062;6.920;2024-02-23T02:13:33;95023.53;;;-144.48;100.00
4123;BME280;2075;51.062;6.920;2024-02-23T02:16:19;95029.63;;;-144.48;100.00
4123;BME280;2075;51.062;6.920;2024-02-23T02:19:05;94785.78;;;-144.48;100.00
4123;BME280;2075;51.062;6.920;2024-02-23T02:21:52;95066.19;;;-144.48;100.00
4123;BME280;2075;51.062;6.920;2024-02-23T02:24:38;95068.22;;;-144.48;100.00
4123;BME280;2075;51.062;6.920;2024-02-23T02:27:26;95037.75;;;-144.48;100.00
4123;BME280;2075;51.062;6.920;2024-02-23T02:30:13;95035.72;;;-144.48;100.00
4123;BME280;2075;51.062;6.920;2024-02-23T02:32:58;95062.13;;;-144.48;100.00
4123;BME280;2075;51.062;6.920;2024-02-23T02:35:44;95037.75;;;-144.48;100.00
4123;BME280;2075;51.062;6.920;2024-02-23T02:38:31;95037.75;;;-144.48;100.00
4123;BME280;2075;51.062;6.920;2024-02-23T02:41:18;95047.91;;;-144.48;100.00
4123;BME280;2075;51.062;6.920;2024-02-23T02:44:04;95090.59;;;-144.48;100.00
4123;BME280;2075;51.062;6.920;2024-02-23T02:46:49;94997.13;;;-144.48;100.00
4123;BME280;2075;51.062;6.920;2024-02-23T02:49:35;95074.31;;;-144.48;100.00
4123;BME280;2075;51.062;6.920;2024-02-23T02:52:20;95068.22;;;-144.48;100.00
4123;BME280;2075;51.062;6.920;2024-02-23T02:55:10;95011.34;;;-144.48;100.00
4123;BME280;2075;51.062;6.920;2024-02-23T02:57:55;95064.16;;;-144.48;100.00
4123;BME280;2075;51.062;6.920;2024-02-23T03:00:40;95041.81;;;-144.48;100.00
4123;BME280;2075;51.062;6.920;2024-02-23T03:03:26;95007.28;;;-144.48;100.00
4123;BME280;2075;51.062;6.920;2024-02-23T03:06:11;95084.50;;;-144.48;100.00
4123;BME280;2075;51.062;6.920;2024-02-23T03:08:56;94759.38;;;-144.48;100.00
4123;BME280;2075;51.062;6.920;2024-02-23T03:11:44;94936.16;;;-144.48;100.00
4123;BME280;2075;51.062;6.920;2024-02-23T03:14:29;95054.00;;;-144.48;100.00
4123;BME280;2075;51.062;6.920;2024-02-23T03:17:14;95025.56;;;-144.48;100.00
4123;BME280;2075;51.062;6.920;2024-02-23T03:20:01;95041.81;;;-144.48;100.00
4123;BME280;2075;51.062;6.920;2024-02-23T03:22:49;95263.31;;;-144.48;100.00
4123;BME280;2075;51.062;6.920;2024-02-23T03:25:36;95200.31;;;-144.48;100.00
4123;BME280;2075;51.062;6.920;2024-02-23T03:28:23;95033.69;;;-144.48;100.00
4123;BME280;2075;51.062;6.920;2024-02-23T03:31:08;95027.59;;;-144.48;100.00
4123;BME280;2075;51.062;6.920;2024-02-23T03:33:54;95045.88;;;-144.48;100.00
4123;BME280;2075;51.062;6.920;2024-02-23T03:36:39;95047.91;;;-144.48;100.00
4123;BME280;2075;51.062;6.920;2024-02-23T03:39:24;94982.88;;;-144.48;100.00
4123;BME280;2075;51.062;6.920;2024-02-23T03:42:10;95070.25;;;-144.48;100.00
4123;BME280;2075;51.062;6.920;2024-02-23T03:44:57;95009.31;;;-144.48;100.00
4123;BME280;2075;51.062;6.920;2024-02-23T03:47:42;95013.38;;;-144.48;100.00
4123;BME280;2075;51.062;6.920;2024-02-23T03:50:28;95039.78;;;-144.48;100.00
4123;BME280;2075;51.062;6.920;2024-02-23T03:53:14;95056.03;;;-144.48;100.00
4123;BME280;2075;51.062;6.920;2024-02-23T03:55:59;95102.78;;;-144.48;100.00
4123;BME280;2075;51.062;6.920;2024-02-23T03:58:44;95074.31;;;-144.48;100.00
4123;BME280;2075;51.062;6.920;2024-02-23T04:01:31;94995.06;;;-144.48;100.00
4123;BME280;2075;51.062;6.920;2024-02-23T04:04:17;94995.06;;;-144.48;100.00
4123;BME280;2075;51.062;6.920;2024-02-23T04:07:03;95017.44;;;-144.48;100.00
4123;BME280;2075;51.062;6.920;2024-02-23T04:09:48;95011.34;;;-144.48;100.00
4123;BME280;2075;51.062;6.920;2024-02-23T04:12:36;95054.00;;;-144.48;100.00
4123;BME280;2075;51.062;6.920;2024-02-23T04:15:22;94952.41;;;-144.48;100.00
4123;BME280;2075;51.062;6.920;2024-02-23T04:18:09;94982.88;;;-144.48;100.00
4123;BME280;2075;51.062;6.920;2024-02-23T04:20:55;94858.94;;;-144.48;100.00
4123;BME280;2075;51.062;6.920;2024-02-23T04:23:40;94952.41;;;-144.48;100.00
4123;BME280;2075;51.062;6.920;2024-02-23T04:26:26;94993.03;;;-144.48;100.00
4123;BME280;2075;51.062;6.920;2024-02-23T04:29:11;94964.59;;;-144.48;99.55
4123;BME280;2075;51.062;6.920;2024-02-23T04:31:57;94907.69;;;-144.48;98.42
4123;BME280;2075;51.062;6.920;2024-02-23T04:34:43;94930.06;;;-144.48;97.14
4123;BME280;2075;51.062;6.920;2024-02-23T04:37:29;94863.00;;;-144.48;96.54
4123;BME280;2075;51.062;6.920;2024-02-23T04:40:15;94960.53;;;-144.48;96.43
4123;BME280;2075;51.062;6.920;2024-02-23T04:43:00;94984.91;;;-144.48;97.18
4123;BME280;2075;51.062;6.920;2024-02-23T04:45:46;94917.88;;;-144.48;96.16
4123;BME280;2075;51.062;6.920;2024-02-23T04:48:32;94958.50;;;-144.48;96.58
4123;BME280;2075;51.062;6.920;2024-02-23T04:51:19;94659.81;;;-144.48;95.75
4123;BME280;2075;51.062;6.920;2024-02-23T04:54:06;94964.59;;;-144.48;95.50
4123;BME280;2075;51.062;6.920;2024-02-23T04:56:52;94903.63;;;-144.48;94.92
4123;BME280;2075;51.062;6.920;2024-02-23T04:59:37;94964.59;;;-144.48;94.53
4123;BME280;2075;51.062;6.920;2024-02-23T05:02:23;94944.28;;;-144.48;94.12
4123;BME280;2075;51.062;6.920;2024-02-23T05:05:08;94907.69;;;-144.48;94.63
4123;BME280;2075;51.062;6.920;2024-02-23T05:07:56;94976.78;;;-144.48;95.00
4123;BME280;2075;51.062;6.920;2024-02-23T05:10:41;94997.13;;;-144.48;95.80
4123;BME280;2075;51.062;6.920;2024-02-23T05:13:27;94986.94;;;-144.48;95.62
4123;BME280;2075;51.062;6.920;2024-02-23T05:16:13;94976.78;;;-144.48;94.89
4123;BME280;2075;51.062;6.920;2024-02-23T05:18:59;94958.50;;;-144.48;94.22
4123;BME280;2075;51.062;6.920;2024-02-23T05:21:45;94647.59;;;-144.48;93.95
4123;BME280;2075;51.062;6.920;2024-02-23T05:24:32;94934.13;;;-144.48;92.26
4123;BME280;2075;51.062;6.920;2024-02-23T05:27:17;94923.97;;;-144.48;92.60
4123;BME280;2075;51.062;6.920;2024-02-23T05:30:04;94964.59;;;-144.48;92.55
4123;BME280;2075;51.062;6.920;2024-02-23T05:32:50;94978.81;;;-144.48;92.65
4123;BME280;2075;51.062;6.920;2024-02-23T05:35:36;94976.78;;;-144.48;93.57
4123;BME280;2075;51.062;6.920;2024-02-23T05:38:21;94952.41;;;-144.48;94.41
4123;BME280;2075;51.062;6.920;2024-02-23T05:41:11;94972.72;;;-144.48;94.13
4123;BME280;2075;51.062;6.920;2024-02-23T05:43:59;94974.75;;;-144.48;93.45
4123;BME280;2075;51.062;6.920;2024-02-23T05:46:48;95033.69;;;-144.48;94.43
4123;BME280;2075;51.062;6.920;2024-02-23T05:49:37;94956.47;;;-144.48;95.33
4123;BME280;2075;51.062;6.920;2024-02-23T05:52:22;95005.25;;;-144.48;96.58
4123;BME280;2075;51.062;6.920;2024-02-23T05:55:16;95005.25;;;-144.48;97.11
4123;BME280;2075;51.062;6.920;2024-02-23T05:58:07;95013.38;;;-144.48;96.64
4123;BME280;2075;51.062;6.920;2024-02-23T06:00:53;95041.81;;;-144.48;98.29
4123;BME280;2075;51.062;6.920;2024-02-23T06:03:39;95017.44;;;-144.48;98.77
4123;BME280;2075;51.062;6.920;2024-02-23T06:06:24;94988.97;;;-144.48;97.05
4123;BME280;2075;51.062;6.920;2024-02-23T06:09:10;95023.53;;;-144.48;95.33
4123;BME280;2075;51.062;6.920;2024-02-23T06:11:57;94932.09;;;-144.48;96.22
4123;BME280;2075;51.062;6.920;2024-02-23T06:14:46;94954.44;;;-144.48;96.16
4123;BME280;2075;51.062;6.920;2024-02-23T06:17:32;94940.22;;;-144.48;95.74
4123;BME280;2075;51.062;6.920;2024-02-23T06:20:20;94960.53;;;-144.48;95.21
4123;BME280;2075;51.062;6.920;2024-02-23T06:23:11;94863.00;;;-144.48;95.28
4123;BME280;2075;51.062;6.920;2024-02-23T06:25:57;94956.47;;;-144.48;95.50
4123;BME280;2075;51.062;6.920;2024-02-23T06:28:42;94936.16;;;-144.48;94.67
4123;BME280;2075;51.062;6.920;2024-02-23T06:31:38;95001.19;;;-144.48;96.60
4123;BME280;2075;51.062;6.920;2024-02-23T06:34:23;95117.00;;;-144.48;97.69
4123;BME280;2075;51.062;6.920;2024-02-23T06:37:11;95049.94;;;-144.48;98.83
4123;BME280;2075;51.062;6.920;2024-02-23T06:39:58;95003.22;;;-144.48;99.79
4123;BME280;2075;51.062;6.920;2024-02-23T06:42:44;95135.28;;;-144.48;100.00
4123;BME280;2075;51.062;6.920;2024-02-23T06:45:29;95021.50;;;-144.48;100.00
4123;BME280;2075;51.062;6.920;2024-02-23T06:48:16;95013.38;;;-144.48;100.00
4123;BME280;2075;51.062;6.920;2024-02-23T06:51:02;95019.47;;;-144.48;100.00
4123;BME280;2075;51.062;6.920;2024-02-23T06:53:48;95054.00;;;-144.48;100.00
4123;BME280;2075;51.062;6.920;2024-02-23T06:56:34;95043.84;;;-144.48;100.00
4123;BME280;2075;51.062;6.920;2024-02-23T06:59:21;94972.72;;;-144.48;100.00
4123;BME280;2075;51.062;6.920;2024-02-23T07:02:08;95037.75;;;-144.48;100.00
4123;BME280;2075;51.062;6.920;2024-02-23T07:04:59;95011.34;;;-144.48;100.00
4123;BME280;2075;51.062;6.920;2024-02-23T07:07:48;94997.13;;;-144.48;99.24
4123;BME280;2075;51.062;6.920;2024-02-23T07:10:35;94741.06;;;-144.48;98.35
4123;BME280;2075;51.062;6.920;2024-02-23T07:13:22;94956.47;;;-144.48;96.71
4123;BME280;2075;51.062;6.920;2024-02-23T07:16:08;94867.06;;;-144.48;93.00
4123;BME280;2075;51.062;6.920;2024-02-23T07:18:54;94869.09;;;-144.48;88.58
4123;BME280;2075;51.062;6.920;2024-02-23T07:21:41;94863.00;;;-144.48;89.27
4123;BME280;2075;51.062;6.920;2024-02-23T07:24:27;94942.25;;;-144.48;90.74
4123;BME280;2075;51.062;6.920;2024-02-23T07:27:13;94958.50;;;-144.48;92.51
4123;BME280;2075;51.062;6.920;2024-02-23T07:30:00;95094.66;;;-144.48;93.01
4123;BME280;2075;51.062;6.920;2024-02-23T07:32:47;94974.75;;;-144.48;93.47
4123;BME280;2075;51.062;6.920;2024-02-23T07:35:32;94952.41;;;-144.48;93.18
4123;BME280;2075;51.062;6.920;2024-02-23T07:38:19;94952.41;;;-144.48;93.64
4123;BME280;2075;51.062;6.920;2024-02-23T07:41:05;94962.56;;;-144.48;93.41
4123;BME280;2075;51.062;6.920;2024-02-23T07:43:51;94905.66;;;-144.48;92.57
4123;BME280;2075;51.062;6.920;2024-02-23T07:46:51;94684.19;;;-144.48;92.97
4123;BME280;2075;51.062;6.920;2024-02-23T07:49:39;94940.22;;;-144.48;92.67
4123;BME280;2075;51.062;6.920;2024-02-23T07:52:25;94928.03;;;-144.48;91.16
4123;BME280;2075;51.062;6.920;2024-02-23T07:55:13;94956.47;;;-144.48;91.61
4123;BME280;2075;51.062;6.920;2024-02-23T07:58:00;94911.75;;;-144.48;91.18
4123;BME280;2075;51.062;6.920;2024-02-23T08:00:46;94911.75;;;-144.48;90.16
4123;BME280;2075;51.062;6.920;2024-02-23T08:03:34;94619.16;;;-144.48;89.78
4123;BME280;2075;51.062;6.920;2024-02-23T08:06:20;94895.50;;;-144.48;89.33
4123;BME280;2075;51.062;6.920;2024-02-23T08:09:06;94923.97;;;-144.48;88.49
4123;BME280;2075;51.062;6.920;2024-02-23T08:11:55;94932.09;;;-144.48;89.05
4123;BME280;2075;51.062;6.920;2024-02-23T08:14:41;94903.63;;;-144.48;87.14
4123;BME280;2075;51.062;6.920;2024-02-23T08:17:30;94867.06;;;-144.48;87.32
4123;BME280;2075;51.062;6.920;2024-02-23T08:20:16;94950.38;;;-144.48;84.50
4123;BME280;2075;51.062;6.920;2024-02-23T08:23:02;94844.72;;;-144.48;80.90
4123;BME280;2075;51.062;6.920;2024-02-23T08:25:48;94789.84;;;-144.48;79.28
4123;BME280;2075;51.062;6.920;2024-02-23T08:28:37;94808.13;;;-144.48;80.24
4123;BME280;2075;51.062;6.920;2024-02-23T08:31:24;94844.72;;;-144.48;79.30
4123;BME280;2075;51.062;6.920;2024-02-23T08:34:10;94722.78;;;-144.48;76.28
4123;BME280;2075;51.062;6.920;2024-02-23T08:36:57;94810.16;;;-144.48;76.96
4123;BME280;2075;51.062;6.920;2024-02-23T08:39:44;94810.16;;;-144.48;76.91
4123;BME280;2075;51.062;6.920;2024-02-23T08:42:30;94804.06;;;-144.48;75.78
4123;BME280;2075;51.062;6.920;2024-02-23T08:45:20;94769.53;;;-144.48;74.81
4123;BME280;2075;51.062;6.920;2024-02-23T08:48:06;94771.56;;;-144.48;75.20
4123;BME280;2075;51.062;6.920;2024-02-23T08:50:53;94787.81;;;-144.48;74.94
4123;BME280;2075;51.062;6.920;2024-02-23T08:53:39;94753.28;;;-144.48;73.14
4123;BME280;2075;51.062;6.920;2024-02-23T08:56:27;94706.53;;;-144.48;70.36
4123;BME280;2075;51.062;6.920;2024-02-23T08:59:13;94753.28;;;-144.48;70.16
4123;BME280;2075;51.062;6.920;2024-02-23T09:02:01;94743.09;;;-144.48;70.53
4123;BME280;2075;51.062;6.920;2024-02-23T09:04:56;95058.06;;;-144.48;69.24
4123;BME280;2075;51.062;6.920;2024-02-23T09:07:42;94688.25;;;-144.48;70.09
4123;BME280;2075;51.062;6.920;2024-02-23T09:10:29;94732.94;;;-144.48;68.53
4123;BME280;2075;51.062;6.920;2024-02-23T09:13:16;94672.00;;;-144.48;67.75
4123;BME280;2075;51.062;6.920;2024-02-23T09:16:05;94694.34;;;-144.48;66.47
4123;BME280;2075;51.062;6.920;2024-02-23T09:18:53;94728.88;;;-144.48;67.74
4123;BME280;2075;51.062;6.920;2024-02-23T09:21:40;94734.97;;;-144.48;66.42
4123;BME280;2075;51.062;6.920;2024-02-23T09:24:28;94732.94;;;-144.48;66.65
4123;BME280;2075;51.062;6.920;2024-02-23T09:27:16;94907.69;;;-144.48;65.27
4123;BME280;2075;51.062;6.920;2024-02-23T09:30:03;94680.13;;;-144.48;63.95
4123;BME280;2075;51.062;6.920;2024-02-23T09:32:54;94629.31;;;-144.48;63.53
4123;BME280;2075;51.062;6.920;2024-02-23T09:35:43;94682.16;;;-144.48;65.52
4123;BME280;2075;51.062;6.920;2024-02-23T09:38:30;94615.09;;;-144.48;64.71
4123;BME280;2075;51.062;6.920;2024-02-23T09:41:20;94566.34;;;-144.48;60.93
4123;BME280;2075;51.062;6.920;2024-02-23T09:44:08;94529.75;;;-144.48;58.84
4123;BME280;2075;51.062;6.920;2024-02-23T09:46:56;94775.63;;;-144.48;57.41
4123;BME280;2075;51.062;6.920;2024-02-23T09:49:48;94505.38;;;-144.48;57.19
4123;BME280;2075;51.062;6.920;2024-02-23T09:52:37;94529.75;;;-144.48;56.23
4123;BME280;2075;51.062;6.920;2024-02-23T09:55:23;94546.03;;;-144.48;56.43
4123;BME280;2075;51.062;6.920;2024-02-23T09:58:10;94586.66;;;-144.48;56.11
4123;BME280;2075;51.062;6.920;2024-02-23T10:00:58;94548.06;;;-144.48;56.83
4123;BME280;2075;51.062;6.920;2024-02-23T10:03:45;94600.88;;;-144.48;56.40
4123;BME280;2075;51.062;6.920;2024-02-23T10:06:31;94663.88;;;-144.48;57.11
4123;BME280;2075;51.062;6.920;2024-02-23T10:09:18;94627.28;;;-144.48;58.02
4123;BME280;2075;51.062;6.920;2024-02-23T10:12:07;94627.28;;;-144.48;57.66
4123;BME280;2075;51.062;6.920;2024-02-23T10:14:54;94564.31;;;-144.48;57.56
4123;BME280;2075;51.062;6.920;2024-02-23T10:17:40;94602.91;;;-144.48;55.00
4123;BME280;2075;51.062;6.920;2024-02-23T10:20:29;94562.28;;;-144.48;54.96
4123;BME280;2075;51.062;6.920;2024-02-23T10:23:16;94954.44;;;-144.48;54.42
4123;BME280;2075;51.062;6.920;2024-02-23T10:26:06;94472.88;;;-144.48;53.14
4123;BME280;2075;51.062;6.920;2024-02-23T10:28:52;94602.91;;;-144.48;54.68
4123;BME280;2075;51.062;6.920;2024-02-23T10:31:46;94596.81;;;-144.48;54.04
4123;BME280;2075;51.062;6.920;2024-02-23T10:34:37;94517.56;;;-144.48;52.88
4123;BME280;2075;51.062;6.920;2024-02-23T10:37:24;94556.19;;;-144.48;51.68
4123;BME280;2075;51.062;6.920;2024-02-23T10:40:12;94503.34;;;-144.48;52.29
4123;BME280;2075;51.062;6.920;2024-02-23T10:43:02;94592.75;;;-144.48;52.86
4123;BME280;2075;51.062;6.920;2024-02-23T10:45:52;94521.63;;;-144.48;52.77
4123;BME280;2075;51.062;6.920;2024-02-23T10:48:42;94497.25;;;-144.48;53.25
4123;BME280;2075;51.062;6.920;2024-02-23T10:51:30;94570.41;;;-144.48;53.98
4123;BME280;2075;51.062;6.920;2024-02-23T10:54:35;94615.09;;;-144.48;54.32
4123;BME280;2075;51.062;6.920;2024-02-23T10:57:22;94594.78;;;-144.48;55.96
4123;BME280;2075;51.062;6.920;2024-02-23T11:00:14;94647.59;;;-144.48;57.45
4123;BME280;2075;51.062;6.920;2024-02-23T11:03:04;94602.91;;;-144.48;58.11
4123;BME280;2075;51.062;6.920;2024-02-23T11:05:53;95047.91;;;-144.48;57.70
4123;BME280;2075;51.062;6.920;2024-02-23T11:08:39;94623.22;;;-144.48;57.64
4123;BME280;2075;51.062;6.920;2024-02-23T11:11:26;94625.25;;;-144.48;58.17
4123;BME280;2075;51.062;6.920;2024-02-23T11:14:14;94635.41;;;-144.48;58.26
4123;BME280;2075;51.062;6.920;2024-02-23T11:17:02;94674.03;;;-144.48;59.25
4123;BME280;2075;51.062;6.920;2024-02-23T11:19:49;94641.50;;;-144.48;63.73
4123;BME280;2075;51.062;6.920;2024-02-23T11:22:36;94647.59;;;-144.48;65.25
4123;BME280;2075;51.062;6.920;2024-02-23T11:25:26;94708.56;;;-144.48;64.61
4123;BME280;2075;51.062;6.920;2024-02-23T11:28:22;94645.56;;;-144.48;63.94
4123;BME280;2075;51.062;6.920;2024-02-23T11:31:12;94676.06;;;-144.48;63.89
4123;BME280;2075;51.062;6.920;2024-02-23T11:33:59;94647.59;;;-144.48;62.41
4123;BME280;2075;51.062;6.920;2024-02-23T11:36:50;94582.59;;;-144.48;61.27
4123;BME280;2075;51.062;6.920;2024-02-23T11:39:37;94956.47;;;-144.48;58.57
4123;BME280;2075;51.062;6.920;2024-02-23T11:42:26;94617.13;;;-144.48;58.68
4123;BME280;2075;51.062;6.920;2024-02-23T11:45:13;94588.69;;;-144.48;57.43
4123;BME280;2075;51.062;6.920;2024-02-23T11:47:58;94598.84;;;-144.48;58.14
4123;BME280;2075;51.062;6.920;2024-02-23T11:50:47;94586.66;;;-144.48;56.93
4123;BME280;2075;51.062;6.920;2024-02-23T11:53:33;94562.28;;;-144.48;56.53
4123;BME280;2075;51.062;6.920;2024-02-23T11:56:19;94621.19;;;-144.48;55.77
4123;BME280;2075;51.062;6.920;2024-02-23T11:59:06;94584.63;;;-144.48;54.38
4123;BME280;2075;51.062;6.920;2024-02-23T12:01:54;94562.28;;;-144.48;55.47
4123;BME280;2075;51.062;6.920;2024-02-23T12:04:42;94588.69;;;-144.48;54.97
4123;BME280;2075;51.062;6.920;2024-02-23T12:07:30;94529.75;;;-144.48;55.54
4123;BME280;2075;51.062;6.920;2024-02-23T12:10:16;94570.41;;;-144.48;54.26
4123;BME280;2075;51.062;6.920;2024-02-23T12:13:03;94550.09;;;-144.48;53.61
4123;BME280;2075;51.062;6.920;2024-02-23T12:15:52;94550.09;;;-144.48;53.17
4123;BME280;2075;51.062;6.920;2024-02-23T12:18:39;94517.56;;;-144.48;53.37
4123;BME280;2075;51.062;6.920;2024-02-23T12:21:26;94505.38;;;-144.48;53.46
4123;BME280;2075;51.062;6.920;2024-02-23T12:24:15;94464.75;;;-144.48;53.28
4123;BME280;2075;51.062;6.920;2024-02-23T12:27:02;94556.19;;;-144.48;53.06
4123;BME280;2075;51.062;6.920;2024-02-23T12:29:52;94529.75;;;-144.48;54.04
4123;BME280;2075;51.062;6.920;2024-02-23T12:32:40;94562.28;;;-144.48;54.04
4123;BME280;2075;51.062;6.920;2024-02-23T12:35:27;94525.69;;;-144.48;54.48
4123;BME280;2075;51.062;6.920;2024-02-23T12:38:13;94623.22;;;-144.48;55.35
4123;BME280;2075;51.062;6.920;2024-02-23T12:41:02;94621.19;;;-144.48;56.25
4123;BME280;2075;51.062;6.920;2024-02-23T12:43:49;94562.28;;;-144.48;56.37
4123;BME280;2075;51.062;6.920;2024-02-23T12:46:38;94529.75;;;-144.48;54.94
4123;BME280;2075;51.062;6.920;2024-02-23T12:49:24;94564.31;;;-144.48;54.26
4123;BME280;2075;51.062;6.920;2024-02-23T12:52:12;94460.69;;;-144.48;53.65
4123;BME280;2075;51.062;6.920;2024-02-23T12:54:59;94485.06;;;-144.48;52.13
4123;BME280;2075;51.062;6.920;2024-02-23T12:57:50;94436.31;;;-144.48;51.25
4123;BME280;2075;51.062;6.920;2024-02-23T13:00:36;94436.31;;;-144.48;50.43
4123;BME280;2075;51.062;6.920;2024-02-23T13:03:24;94464.75;;;-144.48;50.71
4123;BME280;2075;51.062;6.920;2024-02-23T13:06:14;94442.41;;;-144.48;49.51
4123;BME280;2075;51.062;6.920;2024-02-23T13:09:01;94525.69;;;-144.48;50.14
4123;BME280;2075;51.062;6.920;2024-02-23T13:11:47;94466.78;;;-144.48;50.67
4123;BME280;2075;51.062;6.920;2024-02-23T13:14:36;94397.69;;;-144.48;50.10
4123;BME280;2075;51.062;6.920;2024-02-23T13:17:23;94476.94;;;-144.48;49.27
4123;BME280;2075;51.062;6.920;2024-02-23T13:20:11;94730.91;;;-144.48;50.44
4123;BME280;2075;51.062;6.920;2024-02-23T13:22:59;94407.84;;;-144.48;49.24
4123;BME280;2075;51.062;6.920;2024-02-23T13:25:45;94440.38;;;-144.48;48.24
4123;BME280;2075;51.062;6.920;2024-02-23T13:28:34;94403.78;;;-144.48;48.35
4123;BME280;2075;51.062;6.920;2024-02-23T13:31:22;94415.97;;;-144.48;48.29
4123;BME280;2075;51.062;6.920;2024-02-23T13:34:11;94456.63;;;-144.48;48.36
4123;BME280;2075;51.062;6.920;2024-02-23T13:37:03;94497.25;;;-144.48;48.56
4123;BME280;2075;51.062;6.920;2024-02-23T13:39:53;94495.22;;;-144.48;49.03
4123;BME280;2075;51.062;6.920;2024-02-23T13:42:44;94456.63;;;-144.48;50.08
4123;BME280;2075;51.062;6.920;2024-02-23T13:45:50;94432.25;;;-144.48;49.35
4123;BME280;2075;51.062;6.920;2024-02-23T13:49:04;94428.16;;;-144.48;49.31
4123;BME280;2075;51.062;6.920;2024-02-23T13:51:56;94464.75;;;-144.48;48.14
4123;BME280;2075;51.062;6.920;2024-02-23T13:54:45;94487.09;;;-144.48;49.24
4123;BME280;2075;51.062;6.920;2024-02-23T13:57:45;94440.38;;;-144.48;49.43
4123;BME280;2075;51.062;6.920;2024-02-23T14:00:33;94491.16;;;-144.48;49.98
4123;BME280;2075;51.062;6.920;2024-02-23T14:03:21;94558.22;;;-144.48;49.90
4123;BME280;2075;51.062;6.920;2024-02-23T14:06:10;94487.09;;;-144.48;50.50
4123;BME280;2075;51.062;6.920;2024-02-23T14:08:56;94466.78;;;-144.48;49.47
4123;BME280;2075;51.062;6.920;2024-02-23T14:11:43;94456.63;;;-144.48;50.32
4123;BME280;2075;51.062;6.920;2024-02-23T14:14:31;94444.44;;;-144.48;49.61
4123;BME280;2075;51.062;6.920;2024-02-23T14:17:20;94472.88;;;-144.48;50.29
4123;BME280;2075;51.062;6.920;2024-02-23T14:20:06;94474.91;;;-144.48;50.11
4123;BME280;2075;51.062;6.920;2024-02-23T14:22:55;94489.13;;;-144.48;50.13
4123;BME280;2075;51.062;6.920;2024-02-23T14:25:43;94493.19;;;-144.48;50.21
4123;BME280;2075;51.062;6.920;2024-02-23T14:28:31;94505.38;;;-144.48;50.56
4123;BME280;2075;51.062;6.920;2024-02-23T14:31:37;94497.25;;;-144.48;51.53
4123;BME280;2075;51.062;6.920;2024-02-23T14:34:37;94517.56;;;-144.48;52.04
4123;BME280;2075;51.062;6.920;2024-02-23T14:37:23;94550.09;;;-144.48;52.17
4123;BME280;2075;51.062;6.920;2024-02-23T14:40:17;94533.81;;;-144.48;52.53
4123;BME280;2075;51.062;6.920;2024-02-23T14:43:05;94550.09;;;-144.48;53.11